createdAt,value
2019-03-23T00:02:12.709Z,0.40
2019-03-23T00:04:40.752Z,0.50
2019-03-23T00:07:09.838Z,0.70
2019-03-23T00:09:39.722Z,0.47
2019-03-23T00:12:07.769Z,0.50
2019-03-23T00:14:35.607Z,0.50
2019-03-23T00:17:03.838Z,0.60
2019-03-23T00:19:31.905Z,0.43
2019-03-23T00:21:59.754Z,0.40
2019-03-23T00:24:27.901Z,0.50
2019-03-23T00:26:55.749Z,0.30
2019-03-23T00:29:23.909Z,0.40
2019-03-23T00:31:51.761Z,0.43
2019-03-23T00:34:19.738Z,0.37
2019-03-23T00:36:47.829Z,0.50
2019-03-23T00:39:15.890Z,0.40
2019-03-23T00:41:43.828Z,0.60
2019-03-23T00:44:11.818Z,0.40
2019-03-23T00:46:39.821Z,0.60
2019-03-23T00:49:08.073Z,0.57
2019-03-23T00:51:35.851Z,0.30
2019-03-23T00:54:03.805Z,0.50
2019-03-23T00:56:31.802Z,0.50
2019-03-23T00:58:59.748Z,0.60
2019-03-23T01:01:27.844Z,0.50
2019-03-23T01:03:55.910Z,0.40
2019-03-23T01:06:23.893Z,0.60
2019-03-23T01:08:51.824Z,0.43
2019-03-23T01:11:20.013Z,0.40
2019-03-23T01:13:48.121Z,0.50
2019-03-23T01:16:16.062Z,0.60
2019-03-23T01:18:44.116Z,0.50
2019-03-23T01:21:12.067Z,0.40
2019-03-23T01:23:40.056Z,0.67
2019-03-23T01:26:08.048Z,0.60
2019-03-23T01:28:36.173Z,0.40
2019-03-23T01:31:04.040Z,0.40
2019-03-23T01:33:31.902Z,0.50
2019-03-23T01:35:59.808Z,0.50
2019-03-23T01:38:27.892Z,0.60
2019-03-23T01:40:55.921Z,0.50
2019-03-23T01:43:24.067Z,0.37
2019-03-23T01:45:52.097Z,0.33
2019-03-23T01:48:20.978Z,0.50
2019-03-23T01:50:49.098Z,0.40
2019-03-23T01:53:17.341Z,0.33
2019-03-23T01:55:45.358Z,0.50
2019-03-23T01:58:13.354Z,0.40
2019-03-23T02:00:41.406Z,0.40
2019-03-23T02:03:09.344Z,0.40
2019-03-23T02:05:37.764Z,0.40
2019-03-23T02:08:05.717Z,0.40
2019-03-23T02:10:33.657Z,0.60
2019-03-23T02:13:01.605Z,0.50
2019-03-23T02:15:29.652Z,0.47
2019-03-23T02:17:57.587Z,0.37
2019-03-23T02:20:25.577Z,0.47
2019-03-23T02:22:53.437Z,0.60
2019-03-23T02:25:21.263Z,0.60
2019-03-23T02:27:49.357Z,0.40
2019-03-23T02:30:17.218Z,0.50
2019-03-23T02:32:45.323Z,0.43
2019-03-23T02:35:13.249Z,0.50
2019-03-23T02:37:41.306Z,0.40
2019-03-23T02:40:09.199Z,0.50
2019-03-23T02:42:37.494Z,0.57
2019-03-23T02:45:06.467Z,0.50
2019-03-23T02:47:34.477Z,0.70
2019-03-23T02:50:02.561Z,0.50
2019-03-23T02:52:30.611Z,0.30
2019-03-23T02:54:58.685Z,0.67
2019-03-23T02:57:26.790Z,0.70
2019-03-23T02:59:54.838Z,0.43
2019-03-23T03:02:22.761Z,0.60
2019-03-23T03:04:50.573Z,0.40
2019-03-23T03:07:18.421Z,1.03
2019-03-23T03:09:46.271Z,0.50
2019-03-23T03:12:14.258Z,0.50
2019-03-23T03:14:42.417Z,0.50
2019-03-23T03:17:10.522Z,0.47
2019-03-23T03:19:40.397Z,0.40
2019-03-23T03:22:08.236Z,0.60
2019-03-23T03:24:36.137Z,0.47
2019-03-23T03:27:04.050Z,0.50
2019-03-23T03:29:32.229Z,0.40
2019-03-23T03:32:01.110Z,0.63
2019-03-23T03:34:29.094Z,0.33
2019-03-23T03:36:56.946Z,0.33
2019-03-23T03:39:24.930Z,0.50
2019-03-23T03:41:53.009Z,0.60
2019-03-23T03:44:20.852Z,0.50
2019-03-23T03:46:48.785Z,0.40
2019-03-23T03:49:16.816Z,0.50
2019-03-23T03:51:44.802Z,0.40
2019-03-23T03:54:12.778Z,0.47
2019-03-23T03:56:40.786Z,0.50
2019-03-23T03:59:08.730Z,0.40
2019-03-23T04:01:36.797Z,0.60
2019-03-23T04:04:04.878Z,0.40
2019-03-23T04:06:32.957Z,0.60
2019-03-23T04:09:00.803Z,0.47
2019-03-23T04:11:28.647Z,0.50
2019-03-23T04:13:56.791Z,0.47
2019-03-23T04:16:24.762Z,0.70
2019-03-23T04:18:52.609Z,0.40
2019-03-23T04:21:20.648Z,0.60
2019-03-23T04:23:48.518Z,0.50
2019-03-23T04:26:16.591Z,0.50
2019-03-23T04:28:44.546Z,0.30
2019-03-23T04:31:12.691Z,0.50
2019-03-23T04:33:40.605Z,0.50
2019-03-23T04:36:08.669Z,0.60
2019-03-23T04:38:36.514Z,0.60
2019-03-23T04:41:04.584Z,0.60
2019-03-23T04:43:32.460Z,0.50
2019-03-23T04:46:00.309Z,0.50
2019-03-23T04:48:28.365Z,0.60
2019-03-23T04:50:56.461Z,0.40
2019-03-23T04:53:25.441Z,0.50
2019-03-23T04:55:53.481Z,0.50
2019-03-23T04:58:21.425Z,0.60
2019-03-23T05:00:49.577Z,0.50
2019-03-23T05:03:17.618Z,0.50
2019-03-23T05:05:45.652Z,0.50
2019-03-23T05:08:13.575Z,0.53
2019-03-23T05:10:41.661Z,0.47
2019-03-23T05:13:09.736Z,0.40
2019-03-23T05:15:38.145Z,0.53
2019-03-23T05:18:06.244Z,0.40
2019-03-23T05:20:34.321Z,0.57
2019-03-23T05:23:02.277Z,0.40
2019-03-23T05:25:30.041Z,0.50
2019-03-23T05:27:58.209Z,0.50
2019-03-23T05:30:27.548Z,0.50
2019-03-23T05:32:55.348Z,0.40
2019-03-23T05:35:23.312Z,0.50
2019-03-23T05:37:51.293Z,0.50
2019-03-23T05:40:19.234Z,0.40
2019-03-23T05:42:47.245Z,0.70
2019-03-23T05:45:15.291Z,0.57
2019-03-23T05:47:43.285Z,0.47
2019-03-23T05:50:11.512Z,0.40
2019-03-23T05:52:39.797Z,0.70
2019-03-23T05:55:07.672Z,0.50
2019-03-23T05:57:35.764Z,0.73
2019-03-23T06:00:04.521Z,0.60
2019-03-23T06:02:32.490Z,0.60
2019-03-23T06:05:00.452Z,0.70
2019-03-23T06:07:28.530Z,0.40
2019-03-23T06:09:56.690Z,0.60
2019-03-23T06:12:24.538Z,0.60
2019-03-23T06:14:52.554Z,0.50
2019-03-23T06:17:20.689Z,0.70
2019-03-23T06:19:48.538Z,0.47
2019-03-23T06:22:16.584Z,0.40
2019-03-23T06:24:44.533Z,0.50
2019-03-23T06:27:12.480Z,0.37
2019-03-23T06:29:40.577Z,0.40
2019-03-23T06:32:08.478Z,0.60
2019-03-23T06:34:36.634Z,0.50
2019-03-23T06:37:04.639Z,0.57
2019-03-23T06:39:32.489Z,0.70
2019-03-23T06:42:00.461Z,0.57
2019-03-23T06:44:28.234Z,0.50
2019-03-23T06:46:56.048Z,0.60
2019-03-23T06:49:24.188Z,0.40
2019-03-23T06:51:52.216Z,0.50
2019-03-23T06:54:20.140Z,0.50
2019-03-23T06:56:48.239Z,0.50
2019-03-23T06:59:16.375Z,0.60
2019-03-23T07:01:44.471Z,0.40
2019-03-23T07:04:13.615Z,0.50
2019-03-23T07:08:17.901Z,0.60
2019-03-23T07:10:46.137Z,0.40
2019-03-23T07:13:14.505Z,0.60
2019-03-23T07:15:42.457Z,0.67
2019-03-23T07:18:11.720Z,0.53
2019-03-23T07:20:40.058Z,0.50
2019-03-23T07:23:08.094Z,0.50
2019-03-23T07:25:36.118Z,0.50
2019-03-23T07:28:04.152Z,0.40
2019-03-23T07:30:32.214Z,0.60
2019-03-23T07:33:00.368Z,0.50
2019-03-23T07:35:28.429Z,0.50
2019-03-23T07:37:56.633Z,0.50
2019-03-23T07:40:26.581Z,0.57
2019-03-23T07:42:54.736Z,0.50
2019-03-23T07:45:24.908Z,0.40
2019-03-23T07:47:53.365Z,0.53
2019-03-23T07:50:21.689Z,0.60
2019-03-23T07:52:49.706Z,0.70
2019-03-23T07:55:17.646Z,0.50
2019-03-23T07:57:45.755Z,0.70
2019-03-23T08:00:15.710Z,0.40
2019-03-23T08:02:43.465Z,0.70
2019-03-23T08:05:11.538Z,0.50
2019-03-23T08:07:39.643Z,0.53
2019-03-23T08:10:07.701Z,0.53
2019-03-23T08:12:36.037Z,0.43
2019-03-23T08:15:05.326Z,0.57
2019-03-23T08:17:33.369Z,0.70
2019-03-23T08:20:01.482Z,0.60
2019-03-23T08:22:29.497Z,0.60
2019-03-23T08:24:57.575Z,0.63
2019-03-23T08:27:25.661Z,0.50
2019-03-23T08:29:53.769Z,0.67
2019-03-23T08:32:22.249Z,0.40
2019-03-23T08:34:50.777Z,0.60
2019-03-23T08:37:18.977Z,0.60
2019-03-23T08:39:48.733Z,0.40
2019-03-23T08:42:17.119Z,0.53
2019-03-23T08:44:45.210Z,0.60
2019-03-23T08:47:13.243Z,0.50
2019-03-23T08:49:41.411Z,0.40
2019-03-23T08:52:09.513Z,0.57
2019-03-23T08:54:38.052Z,0.57
2019-03-23T08:57:06.044Z,0.43
2019-03-23T08:59:34.160Z,0.50
2019-03-23T09:02:02.009Z,0.70
2019-03-23T09:04:30.134Z,0.43
2019-03-23T09:06:58.213Z,0.40
2019-03-23T09:09:26.201Z,0.50
2019-03-23T09:11:54.307Z,0.80
2019-03-23T09:14:23.510Z,0.50
2019-03-23T09:16:51.563Z,0.50
2019-03-23T09:19:19.605Z,0.63
2019-03-23T09:21:47.559Z,0.50
2019-03-23T09:24:15.791Z,0.30
2019-03-23T09:26:43.796Z,0.60
2019-03-23T09:29:11.833Z,0.60
2019-03-23T09:31:39.769Z,0.60
2019-03-23T09:34:07.697Z,0.40
2019-03-23T09:36:35.621Z,0.50
2019-03-23T09:39:04.989Z,0.50
2019-03-23T09:41:33.077Z,0.50
2019-03-23T09:44:01.253Z,0.30
2019-03-23T09:46:29.182Z,0.43
2019-03-23T09:48:57.274Z,0.60
2019-03-23T09:51:25.333Z,0.50
2019-03-23T09:53:53.414Z,0.57
2019-03-23T09:56:21.605Z,0.50
2019-03-23T09:58:49.485Z,0.53
2019-03-23T10:01:17.595Z,0.60
2019-03-23T10:03:45.579Z,0.57
2019-03-23T10:06:13.826Z,0.47
2019-03-23T10:08:41.740Z,0.50
2019-03-23T10:11:09.839Z,0.33
2019-03-23T10:13:38.532Z,0.40
2019-03-23T10:16:06.697Z,0.40
2019-03-23T10:18:34.663Z,0.53
2019-03-23T10:21:02.755Z,0.43
2019-03-23T10:23:30.597Z,0.40
2019-03-23T10:25:58.460Z,0.60
2019-03-23T10:28:26.513Z,0.70
2019-03-23T10:30:54.496Z,0.60
2019-03-23T10:33:22.452Z,0.40
2019-03-23T10:35:51.594Z,0.50
2019-03-23T10:38:19.550Z,0.60
2019-03-23T10:40:48.330Z,0.60
2019-03-23T10:43:16.413Z,0.43
2019-03-23T10:45:44.639Z,0.70
2019-03-23T10:48:12.780Z,0.40
2019-03-23T10:50:40.704Z,0.47
2019-03-23T10:53:08.776Z,0.50
2019-03-23T10:55:38.183Z,0.50
2019-03-23T10:58:06.961Z,0.40
2019-03-23T11:00:35.566Z,0.50
2019-03-23T11:03:03.468Z,0.60
2019-03-23T11:05:31.611Z,0.37
2019-03-23T11:07:59.645Z,0.73
2019-03-23T11:10:27.617Z,0.53
2019-03-23T11:12:56.040Z,0.60
2019-03-23T11:15:24.119Z,0.40
2019-03-23T11:17:52.199Z,1.13
2019-03-23T11:20:20.122Z,0.50
2019-03-23T11:22:48.158Z,0.40
2019-03-23T11:25:16.185Z,0.50
2019-03-23T11:27:44.069Z,0.40
2019-03-23T11:30:12.165Z,0.50
2019-03-23T11:32:40.295Z,0.60
2019-03-23T11:35:08.385Z,0.40
2019-03-23T11:37:36.607Z,0.50
2019-03-23T11:40:04.714Z,0.53
2019-03-23T11:42:32.573Z,0.40
2019-03-23T11:45:00.621Z,0.57
2019-03-23T11:47:28.701Z,0.70
2019-03-23T11:49:56.785Z,0.50
2019-03-23T11:52:24.857Z,0.57
2019-03-23T11:54:52.857Z,0.40
2019-03-23T11:57:20.941Z,0.40
2019-03-23T11:59:48.977Z,0.50
2019-03-23T12:02:17.033Z,0.60
2019-03-23T12:04:45.072Z,0.80
2019-03-23T12:07:13.241Z,0.53
2019-03-23T12:09:41.273Z,0.57
2019-03-23T12:12:09.358Z,0.33
2019-03-23T12:14:37.245Z,0.43
2019-03-23T12:17:05.527Z,0.57
2019-03-23T12:19:33.568Z,0.80
2019-03-23T12:22:01.682Z,0.60
2019-03-23T12:24:29.747Z,0.50
2019-03-23T12:26:57.956Z,0.50
2019-03-23T12:29:25.799Z,0.67
2019-03-23T12:31:53.815Z,0.60
2019-03-23T12:34:21.862Z,0.40
2019-03-23T12:36:50.266Z,0.50
2019-03-23T12:39:18.332Z,0.80
2019-03-23T12:41:46.524Z,0.53
2019-03-23T12:44:14.376Z,0.50
2019-03-23T12:46:48.216Z,0.50
2019-03-23T12:49:12.359Z,0.50
2019-03-23T12:51:40.318Z,0.60
2019-03-23T12:54:08.248Z,0.63
2019-03-23T12:56:36.355Z,0.60
2019-03-23T12:59:04.384Z,0.50
2019-03-23T13:01:32.361Z,0.63
2019-03-23T13:04:00.460Z,0.50
2019-03-23T13:06:28.725Z,1.00
2019-03-23T13:08:56.957Z,0.80
2019-03-23T13:11:34.783Z,0.77
2019-03-23T13:13:54.799Z,1.03
2019-03-23T13:16:23.246Z,1.13
2019-03-23T13:18:51.315Z,1.10
2019-03-23T13:21:19.341Z,0.90
2019-03-23T13:23:47.272Z,0.83
2019-03-23T13:26:15.097Z,1.10
2019-03-23T13:28:43.036Z,1.47
2019-03-23T13:31:10.957Z,1.10
2019-03-23T13:33:39.337Z,0.70
2019-03-23T13:36:07.444Z,0.90
2019-03-23T13:38:35.519Z,0.67
2019-03-23T13:41:03.583Z,0.73
2019-03-23T13:43:33.190Z,1.37
2019-03-23T13:46:01.633Z,1.30
2019-03-23T13:48:29.625Z,1.27
2019-03-23T13:51:01.316Z,0.80
2019-03-23T13:53:29.473Z,1.27
2019-03-23T13:55:57.322Z,0.70
2019-03-23T13:58:25.618Z,0.80
2019-03-23T14:00:53.718Z,0.80
2019-03-23T14:03:22.068Z,0.93
2019-03-23T14:05:50.171Z,1.13
2019-03-23T14:08:18.269Z,0.70
2019-03-23T14:10:46.520Z,0.90
2019-03-23T14:13:14.688Z,1.20
2019-03-23T14:15:42.761Z,1.20
2019-03-23T14:18:10.759Z,0.90
2019-03-23T14:20:38.887Z,1.87
2019-03-23T14:23:07.065Z,1.37
2019-03-23T14:25:35.124Z,1.63
2019-03-23T14:28:03.497Z,1.03
2019-03-23T14:30:31.368Z,1.40
2019-03-23T14:32:59.387Z,1.53
2019-03-23T14:35:27.450Z,1.53
2019-03-23T14:37:55.537Z,2.77
2019-03-23T14:40:23.612Z,1.90
2019-03-23T14:42:51.559Z,0.97
2019-03-23T14:45:19.629Z,1.50
2019-03-23T14:47:47.717Z,1.67
2019-03-23T14:50:15.578Z,1.60
2019-03-23T14:52:43.632Z,1.43
2019-03-23T14:55:11.589Z,1.47
2019-03-23T14:57:40.594Z,1.20
2019-03-23T15:00:08.861Z,0.80
2019-03-23T15:02:37.028Z,1.17
2019-03-23T15:05:05.801Z,1.80
2019-03-23T15:07:33.673Z,1.43
2019-03-23T15:10:01.804Z,1.07
2019-03-23T15:12:29.769Z,1.37
2019-03-23T15:14:57.841Z,1.23
2019-03-23T15:17:25.998Z,1.30
2019-03-23T15:19:54.215Z,1.33
2019-03-23T15:22:22.334Z,0.93
2019-03-23T15:24:50.303Z,1.20
2019-03-23T15:27:19.371Z,1.20
2019-03-23T15:29:47.584Z,1.20
2019-03-23T15:32:15.985Z,1.23
2019-03-23T15:34:44.042Z,1.30
2019-03-23T15:37:13.114Z,1.50
2019-03-23T15:39:41.063Z,1.50
2019-03-23T15:42:09.236Z,1.20
2019-03-23T15:44:37.313Z,1.13
2019-03-23T15:47:05.293Z,1.57
2019-03-23T15:49:33.337Z,1.30
2019-03-23T15:52:01.279Z,2.23
2019-03-23T15:54:29.269Z,1.20
2019-03-23T15:56:57.231Z,1.00
2019-03-23T15:59:25.308Z,1.63
2019-03-23T16:01:53.341Z,1.23
2019-03-23T16:04:21.217Z,0.93
2019-03-23T16:06:49.283Z,1.30
2019-03-23T16:09:17.343Z,1.43
2019-03-23T16:11:45.400Z,1.40
2019-03-23T16:14:13.245Z,1.13
2019-03-23T16:16:46.193Z,1.20
2019-03-23T16:19:14.120Z,1.20
2019-03-23T16:21:41.961Z,1.20
2019-03-23T16:24:09.756Z,1.23
2019-03-23T16:26:38.088Z,1.40
2019-03-23T16:29:06.041Z,1.37
2019-03-23T16:31:35.072Z,1.30
2019-03-23T16:34:03.127Z,1.10
2019-03-23T16:36:30.970Z,0.90
2019-03-23T16:38:58.960Z,1.07
2019-03-23T16:41:26.966Z,0.90
2019-03-23T16:43:55.141Z,0.90
2019-03-23T16:46:23.191Z,1.07
2019-03-23T16:48:51.549Z,1.40
2019-03-23T16:51:19.664Z,1.00
2019-03-23T16:53:47.799Z,1.53
2019-03-23T16:56:15.649Z,1.47
2019-03-23T16:58:43.977Z,1.13
2019-03-23T17:01:12.064Z,1.40
2019-03-23T17:03:40.191Z,1.33
2019-03-23T17:06:08.254Z,1.40
2019-03-23T17:08:36.258Z,1.20
2019-03-23T17:11:04.209Z,1.33
2019-03-23T17:13:32.265Z,1.53
2019-03-23T17:16:00.137Z,1.00
2019-03-23T17:18:47.554Z,1.10
2019-03-23T17:21:15.710Z,1.10
2019-03-23T17:23:43.650Z,1.50
2019-03-23T17:26:12.221Z,1.20
2019-03-23T17:28:40.465Z,1.13
2019-03-23T17:31:11.820Z,0.93
2019-03-23T17:33:40.297Z,1.20
2019-03-23T17:36:08.352Z,1.10
2019-03-23T17:38:36.329Z,1.30
2019-03-23T17:41:04.324Z,1.20
2019-03-23T17:43:32.301Z,1.33
2019-03-23T17:46:00.473Z,0.90
2019-03-23T17:48:28.501Z,0.90
2019-03-23T17:50:56.545Z,1.10
2019-03-23T17:53:24.711Z,1.20
2019-03-23T17:55:52.584Z,3.47
2019-03-23T17:58:20.445Z,1.13
2019-03-23T18:00:48.585Z,1.23
2019-03-23T18:03:16.637Z,0.97
2019-03-23T18:05:45.459Z,1.30
2019-03-23T18:08:13.485Z,1.30
2019-03-23T18:10:41.541Z,0.90
2019-03-23T18:13:16.424Z,1.00
2019-03-23T18:15:41.345Z,0.90
2019-03-23T18:18:09.535Z,0.90
2019-03-23T18:20:39.816Z,1.47
2019-03-23T18:23:10.831Z,1.27
2019-03-23T18:25:39.555Z,1.27
2019-03-23T18:28:08.955Z,0.80
2019-03-23T18:30:39.017Z,1.23
2019-03-23T18:33:07.071Z,1.47
2019-03-23T18:35:35.776Z,1.10
2019-03-23T18:38:03.793Z,1.33
2019-03-23T18:40:31.980Z,1.03
2019-03-23T18:43:02.840Z,1.03
2019-03-23T18:45:31.148Z,1.00
2019-03-23T18:47:59.086Z,1.03
2019-03-23T18:50:27.125Z,1.10
2019-03-23T18:52:55.157Z,0.90
2019-03-23T18:55:23.186Z,1.00
2019-03-23T18:57:51.281Z,1.00
2019-03-23T19:00:32.055Z,0.73
2019-03-23T19:02:59.997Z,1.00
2019-03-23T19:05:28.013Z,1.00
2019-03-23T19:07:56.177Z,0.90
2019-03-23T19:10:25.193Z,1.07
2019-03-23T19:12:53.237Z,0.90
2019-03-23T19:15:21.191Z,0.80
2019-03-23T19:17:49.288Z,0.80
2019-03-23T19:20:17.383Z,1.13
2019-03-23T19:22:45.460Z,0.83
2019-03-23T19:25:18.159Z,0.90
2019-03-23T19:27:43.293Z,1.00
2019-03-23T19:30:11.194Z,1.10
2019-03-23T19:32:40.025Z,0.87
2019-03-23T19:35:07.805Z,1.00
2019-03-23T19:37:35.879Z,1.23
2019-03-23T19:40:04.758Z,0.80
2019-03-23T19:42:32.841Z,0.90
2019-03-23T19:45:03.657Z,0.83
2019-03-23T19:47:31.712Z,1.10
2019-03-23T19:49:59.742Z,0.90
2019-03-23T19:52:27.586Z,0.87
2019-03-23T19:54:55.525Z,1.20
2019-03-23T19:57:23.489Z,0.90
2019-03-23T19:59:51.448Z,1.07
2019-03-23T20:02:19.392Z,0.87
2019-03-23T20:04:47.259Z,0.70
2019-03-23T20:07:15.219Z,0.97
2019-03-23T20:09:44.379Z,0.90
2019-03-23T20:12:14.333Z,1.00
2019-03-23T20:14:42.775Z,0.90
2019-03-23T20:17:10.817Z,1.20
2019-03-23T20:19:39.187Z,0.87
2019-03-23T20:22:07.165Z,1.10
2019-03-23T20:24:35.017Z,1.00
2019-03-23T20:27:04.434Z,0.90
2019-03-23T20:29:32.753Z,1.00
2019-03-23T20:32:00.979Z,0.90
2019-03-23T20:34:29.082Z,1.00
2019-03-23T20:36:57.163Z,0.77
2019-03-23T20:39:25.253Z,0.80
2019-03-23T20:41:53.390Z,1.27
2019-03-23T20:44:21.486Z,1.00
2019-03-23T20:46:49.465Z,0.90
2019-03-23T20:49:17.423Z,0.77
2019-03-23T20:51:45.358Z,1.00
2019-03-23T20:54:13.855Z,1.00
2019-03-23T20:56:42.106Z,1.03
2019-03-23T20:59:10.751Z,0.73
2019-03-23T21:01:39.826Z,0.77
2019-03-23T21:04:07.913Z,1.10
2019-03-23T21:06:35.962Z,1.30
2019-03-23T21:09:05.966Z,0.87
2019-03-23T21:11:34.108Z,1.10
2019-03-23T21:14:02.346Z,0.93
2019-03-23T21:16:30.969Z,1.00
2019-03-23T21:18:59.714Z,1.10
2019-03-23T21:21:28.283Z,0.97
2019-03-23T21:23:56.458Z,1.07
2019-03-23T21:26:24.697Z,0.90
2019-03-23T21:28:53.224Z,0.80
2019-03-23T21:31:21.747Z,0.80
2019-03-23T21:33:50.211Z,1.13
2019-03-23T21:36:18.402Z,0.80
2019-03-23T21:38:46.892Z,0.97
2019-03-23T21:41:15.059Z,1.00
2019-03-23T21:43:43.174Z,1.30
2019-03-23T21:46:11.021Z,1.03
2019-03-23T21:48:39.048Z,0.97
2019-03-23T21:51:07.005Z,1.10
2019-03-23T21:54:36.853Z,1.00
2019-03-23T21:57:05.610Z,1.00
2019-03-23T21:59:33.649Z,1.10
2019-03-23T22:02:01.705Z,0.70
2019-03-23T22:04:30.944Z,0.93
2019-03-23T22:06:58.942Z,1.20
2019-03-23T22:09:27.097Z,1.03
2019-03-23T22:11:55.181Z,0.93
2019-03-23T22:14:24.432Z,0.80
2019-03-23T22:17:13.780Z,0.93
2019-03-23T22:19:41.736Z,0.87
2019-03-23T22:22:09.822Z,0.90
2019-03-23T22:24:38.340Z,1.00
2019-03-23T22:27:06.193Z,0.83
2019-03-23T22:29:34.392Z,0.90
2019-03-23T22:32:02.350Z,0.80
2019-03-23T22:34:30.189Z,1.00
2019-03-23T22:36:58.028Z,1.03
2019-03-23T22:39:25.874Z,0.93
2019-03-23T22:41:53.953Z,0.80
2019-03-23T22:44:23.017Z,1.00
2019-03-23T22:46:52.078Z,1.00
2019-03-23T22:49:20.049Z,0.90
2019-03-23T22:51:48.226Z,0.97
2019-03-23T22:54:16.272Z,0.97
2019-03-23T22:56:44.368Z,1.10
2019-03-23T22:59:12.421Z,0.73
2019-03-23T23:01:40.414Z,0.70
2019-03-23T23:04:08.540Z,1.20
2019-03-23T23:06:36.618Z,0.80
2019-03-23T23:09:08.803Z,1.23
2019-03-23T23:11:37.504Z,0.80
2019-03-23T23:14:05.556Z,0.90
2019-03-23T23:16:33.518Z,1.20
2019-03-23T23:19:01.469Z,0.93
2019-03-23T23:21:29.521Z,0.87
2019-03-23T23:23:57.371Z,0.93
2019-03-23T23:26:25.366Z,0.87
2019-03-23T23:28:53.428Z,0.80
2019-03-23T23:31:21.280Z,1.13
2019-03-23T23:33:49.328Z,0.73
2019-03-23T23:36:17.177Z,0.77
2019-03-23T23:38:45.068Z,0.80
2019-03-23T23:41:13.064Z,0.90
2019-03-23T23:43:41.284Z,1.13
2019-03-23T23:46:09.338Z,0.80
2019-03-23T23:48:37.425Z,0.83
2019-03-23T23:51:05.497Z,0.90
2019-03-23T23:53:33.678Z,0.90
2019-03-23T23:56:01.580Z,1.00
2019-03-23T23:58:29.644Z,1.00
